sensor_id;sensor_type;location;lat;lon;timestamp;P1;durP1;ratioP1;P2;durP2;ratioP2
3547;SDS011;1788;49.400;11.092;2024-01-30T00:01:39;9.17;;;6.03;;
3547;SDS011;1788;49.400;11.092;2024-01-30T00:04:06;9.07;;;6.27;;
3547;SDS011;1788;49.400;11.092;2024-01-30T00:06:33;7.17;;;5.93;;
3547;SDS011;1788;49.400;11.092;2024-01-30T00:09:00;7.30;;;6.10;;
3547;SDS011;1788;49.400;11.092;2024-01-30T00:11:26;9.80;;;6.07;;
3547;SDS011;1788;49.400;11.092;2024-01-30T00:13:53;9.70;;;6.50;;
3547;SDS011;1788;49.400;11.092;2024-01-30T00:16:20;9.47;;;6.30;;
3547;SDS011;1788;49.400;11.092;2024-01-30T00:18:46;9.20;;;6.00;;
3547;SDS011;1788;49.400;11.092;2024-01-30T00:21:13;8.40;;;5.73;;
3547;SDS011;1788;49.400;11.092;2024-01-30T00:23:40;7.27;;;5.63;;
3547;SDS011;1788;49.400;11.092;2024-01-30T00:26:06;6.27;;;5.27;;
3547;SDS011;1788;49.400;11.092;2024-01-30T00:28:33;9.00;;;6.33;;
3547;SDS011;1788;49.400;11.092;2024-01-30T00:31:00;5.60;;;5.17;;
3547;SDS011;1788;49.400;11.092;2024-01-30T00:33:27;9.27;;;5.73;;
3547;SDS011;1788;49.400;11.092;2024-01-30T00:35:53;7.50;;;5.90;;
3547;SDS011;1788;49.400;11.092;2024-01-30T00:38:20;9.03;;;6.00;;
3547;SDS011;1788;49.400;11.092;2024-01-30T00:40:46;9.27;;;6.17;;
3547;SDS011;1788;49.400;11.092;2024-01-30T00:43:13;7.73;;;5.60;;
3547;SDS011;1788;49.400;11.092;2024-01-30T00:45:40;7.67;;;6.23;;
3547;SDS011;1788;49.400;11.092;2024-01-30T00:48:06;7.63;;;5.87;;
3547;SDS011;1788;49.400;11.092;2024-01-30T00:50:33;9.80;;;5.70;;
3547;SDS011;1788;49.400;11.092;2024-01-30T00:53:01;6.20;;;5.77;;
3547;SDS011;1788;49.400;11.092;2024-01-30T00:55:27;8.03;;;6.57;;
3547;SDS011;1788;49.400;11.092;2024-01-30T00:57:54;10.30;;;5.93;;
3547;SDS011;1788;49.400;11.092;2024-01-30T01:00:20;9.07;;;5.97;;
3547;SDS011;1788;49.400;11.092;2024-01-30T01:02:47;7.40;;;5.53;;
3547;SDS011;1788;49.400;11.092;2024-01-30T01:05:14;5.40;;;5.13;;
3547;SDS011;1788;49.400;11.092;2024-01-30T01:07:40;7.97;;;5.13;;
3547;SDS011;1788;49.400;11.092;2024-01-30T01:10:07;7.57;;;5.37;;
3547;SDS011;1788;49.400;11.092;2024-01-30T01:12:34;6.50;;;5.70;;
3547;SDS011;1788;49.400;11.092;2024-01-30T01:15:01;4.90;;;4.17;;
3547;SDS011;1788;49.400;11.092;2024-01-30T01:17:27;6.17;;;5.47;;
3547;SDS011;1788;49.400;11.092;2024-01-30T01:19:54;7.33;;;5.47;;
3547;SDS011;1788;49.400;11.092;2024-01-30T01:22:21;5.67;;;4.73;;
3547;SDS011;1788;49.400;11.092;2024-01-30T01:24:47;6.23;;;4.93;;
3547;SDS011;1788;49.400;11.092;2024-01-30T01:27:14;7.73;;;5.57;;
3547;SDS011;1788;49.400;11.092;2024-01-30T01:29:41;6.67;;;5.53;;
3547;SDS011;1788;49.400;11.092;2024-01-30T01:32:07;6.93;;;6.00;;
3547;SDS011;1788;49.400;11.092;2024-01-30T01:34:34;5.93;;;5.07;;
3547;SDS011;1788;49.400;11.092;2024-01-30T01:37:00;7.10;;;5.87;;
3547;SDS011;1788;49.400;11.092;2024-01-30T01:39:28;6.17;;;4.53;;
3547;SDS011;1788;49.400;11.092;2024-01-30T01:41:54;6.27;;;5.30;;
3547;SDS011;1788;49.400;11.092;2024-01-30T01:44:21;6.53;;;5.23;;
3547;SDS011;1788;49.400;11.092;2024-01-30T01:46:48;8.13;;;5.53;;
3547;SDS011;1788;49.400;11.092;2024-01-30T01:49:14;8.07;;;5.40;;
3547;SDS011;1788;49.400;11.092;2024-01-30T01:51:41;8.30;;;5.40;;
3547;SDS011;1788;49.400;11.092;2024-01-30T01:54:07;6.90;;;5.03;;
3547;SDS011;1788;49.400;11.092;2024-01-30T01:56:34;8.93;;;5.47;;
3547;SDS011;1788;49.400;11.092;2024-01-30T01:59:04;8.93;;;5.17;;
3547;SDS011;1788;49.400;11.092;2024-01-30T02:01:27;9.00;;;6.90;;
3547;SDS011;1788;49.400;11.092;2024-01-30T02:03:54;10.57;;;5.30;;
3547;SDS011;1788;49.400;11.092;2024-01-30T02:06:22;7.13;;;5.20;;
3547;SDS011;1788;49.400;11.092;2024-01-30T02:08:48;7.20;;;5.50;;
3547;SDS011;1788;49.400;11.092;2024-01-30T02:11:15;8.60;;;5.27;;
3547;SDS011;1788;49.400;11.092;2024-01-30T02:13:41;6.33;;;5.10;;
3547;SDS011;1788;49.400;11.092;2024-01-30T02:16:08;8.03;;;5.93;;
3547;SDS011;1788;49.400;11.092;2024-01-30T02:18:35;7.50;;;5.93;;
3547;SDS011;1788;49.400;11.092;2024-01-30T02:23:29;7.00;;;5.37;;
3547;SDS011;1788;49.400;11.092;2024-01-30T02:25:55;10.50;;;6.40;;
3547;SDS011;1788;49.400;11.092;2024-01-30T02:28:22;7.87;;;5.53;;
3547;SDS011;1788;49.400;11.092;2024-01-30T02:30:49;6.40;;;5.33;;
3547;SDS011;1788;49.400;11.092;2024-01-30T02:33:15;6.07;;;5.03;;
3547;SDS011;1788;49.400;11.092;2024-01-30T02:35:42;7.63;;;5.40;;
3547;SDS011;1788;49.400;11.092;2024-01-30T02:38:08;8.97;;;5.57;;
3547;SDS011;1788;49.400;11.092;2024-01-30T02:40:35;7.47;;;5.47;;
3547;SDS011;1788;49.400;11.092;2024-01-30T02:43:02;7.50;;;6.10;;
3547;SDS011;1788;49.400;11.092;2024-01-30T02:45:29;8.00;;;5.80;;
3547;SDS011;1788;49.400;11.092;2024-01-30T02:47:56;7.37;;;5.93;;
3547;SDS011;1788;49.400;11.092;2024-01-30T02:50:22;8.77;;;6.03;;
3547;SDS011;1788;49.400;11.092;2024-01-30T02:52:49;8.63;;;6.17;;
3547;SDS011;1788;49.400;11.092;2024-01-30T02:55:15;5.77;;;5.47;;
3547;SDS011;1788;49.400;11.092;2024-01-30T02:57:42;8.33;;;5.70;;
3547;SDS011;1788;49.400;11.092;2024-01-30T03:00:09;5.80;;;4.90;;
3547;SDS011;1788;49.400;11.092;2024-01-30T03:02:36;7.17;;;5.57;;
3547;SDS011;1788;49.400;11.092;2024-01-30T03:05:03;8.17;;;6.10;;
3547;SDS011;1788;49.400;11.092;2024-01-30T03:07:29;6.10;;;4.97;;
3547;SDS011;1788;49.400;11.092;2024-01-30T03:09:56;8.73;;;6.20;;
3547;SDS011;1788;49.400;11.092;2024-01-30T03:12:22;8.43;;;5.97;;
3547;SDS011;1788;49.400;11.092;2024-01-30T03:14:49;8.67;;;5.70;;
3547;SDS011;1788;49.400;11.092;2024-01-30T03:17:16;6.23;;;5.17;;
3547;SDS011;1788;49.400;11.092;2024-01-30T03:19:42;8.27;;;5.40;;
3547;SDS011;1788;49.400;11.092;2024-01-30T03:22:09;6.67;;;5.23;;
3547;SDS011;1788;49.400;11.092;2024-01-30T03:24:36;8.73;;;5.53;;
3547;SDS011;1788;49.400;11.092;2024-01-30T03:27:03;7.53;;;5.23;;
3547;SDS011;1788;49.400;11.092;2024-01-30T03:29:29;10.73;;;6.57;;
3547;SDS011;1788;49.400;11.092;2024-01-30T03:31:56;6.97;;;5.73;;
3547;SDS011;1788;49.400;11.092;2024-01-30T03:34:23;6.80;;;5.80;;
3547;SDS011;1788;49.400;11.092;2024-01-30T03:36:49;6.03;;;5.60;;
3547;SDS011;1788;49.400;11.092;2024-01-30T03:39:17;6.83;;;5.43;;
3547;SDS011;1788;49.400;11.092;2024-01-30T03:41:44;6.13;;;5.83;;
3547;SDS011;1788;49.400;11.092;2024-01-30T03:44:11;6.17;;;5.43;;
3547;SDS011;1788;49.400;11.092;2024-01-30T03:46:38;7.63;;;5.70;;
3547;SDS011;1788;49.400;11.092;2024-01-30T03:49:05;7.63;;;5.47;;
3547;SDS011;1788;49.400;11.092;2024-01-30T03:51:32;7.37;;;5.60;;
3547;SDS011;1788;49.400;11.092;2024-01-30T03:53:59;6.80;;;5.97;;
3547;SDS011;1788;49.400;11.092;2024-01-30T03:56:25;6.10;;;5.73;;
3547;SDS011;1788;49.400;11.092;2024-01-30T03:58:52;6.13;;;5.40;;
3547;SDS011;1788;49.400;11.092;2024-01-30T04:01:18;6.57;;;5.70;;
3547;SDS011;1788;49.400;11.092;2024-01-30T04:03:46;5.43;;;4.83;;
3547;SDS011;1788;49.400;11.092;2024-01-30T04:06:12;9.63;;;5.87;;
3547;SDS011;1788;49.400;11.092;2024-01-30T04:08:39;8.87;;;5.73;;
3547;SDS011;1788;49.400;11.092;2024-01-30T04:11:06;5.97;;;5.67;;
3547;SDS011;1788;49.400;11.092;2024-01-30T04:13:32;6.23;;;5.23;;
3547;SDS011;1788;49.400;11.092;2024-01-30T04:18:25;6.77;;;5.90;;
3547;SDS011;1788;49.400;11.092;2024-01-30T04:20:52;7.93;;;5.47;;
3547;SDS011;1788;49.400;11.092;2024-01-30T04:23:19;11.03;;;6.67;;
3547;SDS011;1788;49.400;11.092;2024-01-30T04:25:45;8.00;;;6.40;;
3547;SDS011;1788;49.400;11.092;2024-01-30T04:28:12;11.43;;;7.07;;
3547;SDS011;1788;49.400;11.092;2024-01-30T04:30:39;10.50;;;6.73;;
3547;SDS011;1788;49.400;11.092;2024-01-30T04:33:06;14.63;;;7.10;;
3547;SDS011;1788;49.400;11.092;2024-01-30T04:35:32;11.40;;;7.10;;
3547;SDS011;1788;49.400;11.092;2024-01-30T04:37:59;10.23;;;7.00;;
3547;SDS011;1788;49.400;11.092;2024-01-30T04:40:26;10.60;;;6.23;;
3547;SDS011;1788;49.400;11.092;2024-01-30T04:42:52;12.60;;;6.67;;
3547;SDS011;1788;49.400;11.092;2024-01-30T04:45:21;9.23;;;6.27;;
3547;SDS011;1788;49.400;11.092;2024-01-30T04:47:47;8.67;;;6.03;;
3547;SDS011;1788;49.400;11.092;2024-01-30T04:50:14;8.53;;;6.50;;
3547;SDS011;1788;49.400;11.092;2024-01-30T04:52:41;13.13;;;7.80;;
3547;SDS011;1788;49.400;11.092;2024-01-30T04:55:09;8.83;;;7.27;;
3547;SDS011;1788;49.400;11.092;2024-01-30T04:57:35;13.80;;;7.27;;
3547;SDS011;1788;49.400;11.092;2024-01-30T05:00:02;9.27;;;6.83;;
3547;SDS011;1788;49.400;11.092;2024-01-30T05:02:28;10.33;;;6.97;;
3547;SDS011;1788;49.400;11.092;2024-01-30T05:04:55;9.80;;;7.67;;
3547;SDS011;1788;49.400;11.092;2024-01-30T05:07:22;12.77;;;8.47;;
3547;SDS011;1788;49.400;11.092;2024-01-30T05:09:48;8.93;;;7.13;;
3547;SDS011;1788;49.400;11.092;2024-01-30T05:12:15;10.73;;;8.10;;
3547;SDS011;1788;49.400;11.092;2024-01-30T05:14:42;13.90;;;8.50;;
3547;SDS011;1788;49.400;11.092;2024-01-30T05:17:09;12.63;;;7.70;;
3547;SDS011;1788;49.400;11.092;2024-01-30T05:19:36;11.43;;;7.10;;
3547;SDS011;1788;49.400;11.092;2024-01-30T05:22:03;11.63;;;7.37;;
3547;SDS011;1788;49.400;11.092;2024-01-30T05:24:29;11.83;;;7.40;;
3547;SDS011;1788;49.400;11.092;2024-01-30T05:26:56;9.30;;;7.00;;
3547;SDS011;1788;49.400;11.092;2024-01-30T05:29:23;9.47;;;6.73;;
3547;SDS011;1788;49.400;11.092;2024-01-30T05:31:50;8.53;;;6.53;;
3547;SDS011;1788;49.400;11.092;2024-01-30T05:34:17;10.20;;;7.87;;
3547;SDS011;1788;49.400;11.092;2024-01-30T05:36:44;7.20;;;5.17;;
3547;SDS011;1788;49.400;11.092;2024-01-30T05:39:11;16.70;;;9.23;;
3547;SDS011;1788;49.400;11.092;2024-01-30T05:41:41;11.07;;;8.90;;
3547;SDS011;1788;49.400;11.092;2024-01-30T05:44:07;14.73;;;8.87;;
3547;SDS011;1788;49.400;11.092;2024-01-30T05:46:35;13.67;;;9.10;;
3547;SDS011;1788;49.400;11.092;2024-01-30T05:49:00;11.37;;;8.50;;
3547;SDS011;1788;49.400;11.092;2024-01-30T05:51:27;10.60;;;7.13;;
3547;SDS011;1788;49.400;11.092;2024-01-30T05:53:54;11.03;;;8.83;;
3547;SDS011;1788;49.400;11.092;2024-01-30T05:56:21;13.13;;;8.60;;
3547;SDS011;1788;49.400;11.092;2024-01-30T05:58:48;16.10;;;9.47;;
3547;SDS011;1788;49.400;11.092;2024-01-30T06:01:15;20.83;;;11.43;;
3547;SDS011;1788;49.400;11.092;2024-01-30T06:03:43;13.57;;;8.57;;
3547;SDS011;1788;49.400;11.092;2024-01-30T06:06:09;13.17;;;8.87;;
3547;SDS011;1788;49.400;11.092;2024-01-30T06:08:36;13.57;;;9.57;;
3547;SDS011;1788;49.400;11.092;2024-01-30T06:11:03;17.13;;;9.57;;
3547;SDS011;1788;49.400;11.092;2024-01-30T06:13:29;11.70;;;8.70;;
3547;SDS011;1788;49.400;11.092;2024-01-30T06:15:56;11.30;;;8.83;;
3547;SDS011;1788;49.400;11.092;2024-01-30T06:18:23;12.80;;;8.93;;
3547;SDS011;1788;49.400;11.092;2024-01-30T06:20:50;14.07;;;8.97;;
3547;SDS011;1788;49.400;11.092;2024-01-30T06:23:16;13.57;;;9.13;;
3547;SDS011;1788;49.400;11.092;2024-01-30T06:25:43;13.50;;;8.80;;
3547;SDS011;1788;49.400;11.092;2024-01-30T06:28:09;15.77;;;10.30;;
3547;SDS011;1788;49.400;11.092;2024-01-30T06:30:37;18.33;;;10.57;;
3547;SDS011;1788;49.400;11.092;2024-01-30T06:33:04;15.67;;;11.17;;
3547;SDS011;1788;49.400;11.092;2024-01-30T06:35:31;14.27;;;10.20;;
3547;SDS011;1788;49.400;11.092;2024-01-30T06:37:57;17.40;;;11.13;;
3547;SDS011;1788;49.400;11.092;2024-01-30T06:40:24;15.87;;;10.93;;
3547;SDS011;1788;49.400;11.092;2024-01-30T06:42:51;13.23;;;9.60;;
3547;SDS011;1788;49.400;11.092;2024-01-30T06:45:17;14.97;;;9.97;;
3547;SDS011;1788;49.400;11.092;2024-01-30T06:47:45;15.27;;;11.33;;
3547;SDS011;1788;49.400;11.092;2024-01-30T06:50:12;18.33;;;11.00;;
3547;SDS011;1788;49.400;11.092;2024-01-30T06:52:39;18.17;;;11.23;;
3547;SDS011;1788;49.400;11.092;2024-01-30T06:55:06;20.23;;;12.77;;
3547;SDS011;1788;49.400;11.092;2024-01-30T06:57:32;17.97;;;12.03;;
3547;SDS011;1788;49.400;11.092;2024-01-30T07:00:00;17.93;;;11.30;;
3547;SDS011;1788;49.400;11.092;2024-01-30T07:02:27;18.87;;;11.90;;
3547;SDS011;1788;49.400;11.092;2024-01-30T07:04:54;22.10;;;12.90;;
3547;SDS011;1788;49.400;11.092;2024-01-30T07:07:21;16.17;;;11.10;;
3547;SDS011;1788;49.400;11.092;2024-01-30T07:09:48;15.67;;;12.00;;
3547;SDS011;1788;49.400;11.092;2024-01-30T07:12:14;16.27;;;12.10;;
3547;SDS011;1788;49.400;11.092;2024-01-30T07:14:41;21.33;;;12.03;;
3547;SDS011;1788;49.400;11.092;2024-01-30T07:17:08;20.30;;;12.57;;
3547;SDS011;1788;49.400;11.092;2024-01-30T07:19:35;21.67;;;12.27;;
3547;SDS011;1788;49.400;11.092;2024-01-30T07:22:02;21.53;;;12.23;;
3547;SDS011;1788;49.400;11.092;2024-01-30T07:24:29;20.30;;;12.53;;
3547;SDS011;1788;49.400;11.092;2024-01-30T07:26:56;19.07;;;11.43;;
3547;SDS011;1788;49.400;11.092;2024-01-30T07:29:23;22.70;;;12.87;;
3547;SDS011;1788;49.400;11.092;2024-01-30T07:31:50;21.33;;;12.57;;
3547;SDS011;1788;49.400;11.092;2024-01-30T07:34:17;21.80;;;12.63;;
3547;SDS011;1788;49.400;11.092;2024-01-30T07:36:44;21.03;;;12.83;;
3547;SDS011;1788;49.400;11.092;2024-01-30T07:39:10;22.10;;;12.10;;
3547;SDS011;1788;49.400;11.092;2024-01-30T07:41:37;22.17;;;13.17;;
3547;SDS011;1788;49.400;11.092;2024-01-30T07:44:03;17.57;;;12.50;;
3547;SDS011;1788;49.400;11.092;2024-01-30T07:46:30;23.80;;;14.03;;
3547;SDS011;1788;49.400;11.092;2024-01-30T07:48:58;21.13;;;13.03;;
3547;SDS011;1788;49.400;11.092;2024-01-30T07:51:24;22.90;;;13.00;;
3547;SDS011;1788;49.400;11.092;2024-01-30T07:53:52;21.93;;;11.67;;
3547;SDS011;1788;49.400;11.092;2024-01-30T07:56:19;18.93;;;11.80;;
3547;SDS011;1788;49.400;11.092;2024-01-30T07:58:45;18.17;;;12.70;;
3547;SDS011;1788;49.400;11.092;2024-01-30T08:01:14;17.80;;;12.20;;
3547;SDS011;1788;49.400;11.092;2024-01-30T08:03:38;20.77;;;12.70;;
3547;SDS011;1788;49.400;11.092;2024-01-30T08:06:06;22.80;;;13.73;;
3547;SDS011;1788;49.400;11.092;2024-01-30T08:08:32;20.77;;;13.67;;
3547;SDS011;1788;49.400;11.092;2024-01-30T08:11:00;22.17;;;12.97;;
3547;SDS011;1788;49.400;11.092;2024-01-30T08:13:27;20.97;;;13.57;;
3547;SDS011;1788;49.400;11.092;2024-01-30T08:15:53;21.50;;;14.13;;
3547;SDS011;1788;49.400;11.092;2024-01-30T08:18:20;20.40;;;12.53;;
3547;SDS011;1788;49.400;11.092;2024-01-30T08:20:47;21.27;;;12.87;;
3547;SDS011;1788;49.400;11.092;2024-01-30T08:23:14;19.97;;;12.20;;
3547;SDS011;1788;49.400;11.092;2024-01-30T08:25:41;21.47;;;13.57;;
3547;SDS011;1788;49.400;11.092;2024-01-30T08:28:08;20.00;;;14.07;;
3547;SDS011;1788;49.400;11.092;2024-01-30T08:30:34;22.60;;;13.13;;
3547;SDS011;1788;49.400;11.092;2024-01-30T08:33:02;21.47;;;13.23;;
3547;SDS011;1788;49.400;11.092;2024-01-30T08:35:28;18.90;;;12.93;;
3547;SDS011;1788;49.400;11.092;2024-01-30T08:37:55;20.67;;;13.20;;
3547;SDS011;1788;49.400;11.092;2024-01-30T08:40:22;21.30;;;13.37;;
3547;SDS011;1788;49.400;11.092;2024-01-30T08:42:48;21.93;;;13.57;;
3547;SDS011;1788;49.400;11.092;2024-01-30T08:45:16;20.63;;;13.87;;
3547;SDS011;1788;49.400;11.092;2024-01-30T08:47:42;20.00;;;12.57;;
3547;SDS011;1788;49.400;11.092;2024-01-30T08:50:10;21.70;;;13.07;;
3547;SDS011;1788;49.400;11.092;2024-01-30T08:52:36;21.63;;;13.17;;
3547;SDS011;1788;49.400;11.092;2024-01-30T08:55:03;18.10;;;13.07;;
3547;SDS011;1788;49.400;11.092;2024-01-30T08:57:30;17.97;;;12.20;;
3547;SDS011;1788;49.400;11.092;2024-01-30T08:59:56;21.23;;;12.33;;
3547;SDS011;1788;49.400;11.092;2024-01-30T09:02:23;20.70;;;12.50;;
3547;SDS011;1788;49.400;11.092;2024-01-30T09:04:50;19.47;;;12.97;;
3547;SDS011;1788;49.400;11.092;2024-01-30T09:07:17;18.53;;;12.40;;
3547;SDS011;1788;49.400;11.092;2024-01-30T09:09:44;22.50;;;12.77;;
3547;SDS011;1788;49.400;11.092;2024-01-30T09:12:11;24.23;;;12.53;;
3547;SDS011;1788;49.400;11.092;2024-01-30T09:14:38;21.50;;;12.63;;
3547;SDS011;1788;49.400;11.092;2024-01-30T09:17:04;19.53;;;11.77;;
3547;SDS011;1788;49.400;11.092;2024-01-30T09:19:31;20.60;;;12.83;;
3547;SDS011;1788;49.400;11.092;2024-01-30T09:21:58;22.67;;;13.23;;
3547;SDS011;1788;49.400;11.092;2024-01-30T09:24:26;23.50;;;12.13;;
3547;SDS011;1788;49.400;11.092;2024-01-30T09:26:52;22.23;;;12.57;;
3547;SDS011;1788;49.400;11.092;2024-01-30T09:29:19;19.70;;;12.17;;
3547;SDS011;1788;49.400;11.092;2024-01-30T09:31:46;21.80;;;13.37;;
3547;SDS011;1788;49.400;11.092;2024-01-30T09:34:13;23.37;;;12.73;;
3547;SDS011;1788;49.400;11.092;2024-01-30T09:36:39;19.90;;;12.73;;
3547;SDS011;1788;49.400;11.092;2024-01-30T09:39:06;21.27;;;12.47;;
3547;SDS011;1788;49.400;11.092;2024-01-30T09:41:32;17.77;;;12.43;;
3547;SDS011;1788;49.400;11.092;2024-01-30T09:44:00;22.00;;;12.80;;
3547;SDS011;1788;49.400;11.092;2024-01-30T09:46:27;21.60;;;12.53;;
3547;SDS011;1788;49.400;11.092;2024-01-30T09:48:53;19.53;;;12.73;;
3547;SDS011;1788;49.400;11.092;2024-01-30T09:51:20;19.53;;;12.57;;
3547;SDS011;1788;49.400;11.092;2024-01-30T09:53:46;17.67;;;12.47;;
3547;SDS011;1788;49.400;11.092;2024-01-30T09:56:13;20.33;;;12.77;;
3547;SDS011;1788;49.400;11.092;2024-01-30T09:58:40;17.67;;;12.00;;
3547;SDS011;1788;49.400;11.092;2024-01-30T10:01:07;17.53;;;11.17;;
3547;SDS011;1788;49.400;11.092;2024-01-30T10:03:34;20.27;;;12.17;;
3547;SDS011;1788;49.400;11.092;2024-01-30T10:06:00;18.97;;;12.93;;
3547;SDS011;1788;49.400;11.092;2024-01-30T10:08:27;20.63;;;13.03;;
3547;SDS011;1788;49.400;11.092;2024-01-30T10:10:54;19.20;;;12.67;;
3547;SDS011;1788;49.400;11.092;2024-01-30T10:13:21;18.73;;;12.43;;
3547;SDS011;1788;49.400;11.092;2024-01-30T10:15:48;20.47;;;13.00;;
3547;SDS011;1788;49.400;11.092;2024-01-30T10:18:15;19.30;;;11.73;;
3547;SDS011;1788;49.400;11.092;2024-01-30T10:20:42;16.43;;;11.40;;
3547;SDS011;1788;49.400;11.092;2024-01-30T10:23:09;19.33;;;12.33;;
3547;SDS011;1788;49.400;11.092;2024-01-30T10:25:37;20.40;;;12.17;;
3547;SDS011;1788;49.400;11.092;2024-01-30T10:28:03;23.20;;;13.73;;
3547;SDS011;1788;49.400;11.092;2024-01-30T10:30:30;17.70;;;11.83;;
3547;SDS011;1788;49.400;11.092;2024-01-30T10:32:57;19.17;;;12.50;;
3547;SDS011;1788;49.400;11.092;2024-01-30T10:35:24;17.70;;;11.83;;
3547;SDS011;1788;49.400;11.092;2024-01-30T10:37:51;21.70;;;12.80;;
3547;SDS011;1788;49.400;11.092;2024-01-30T10:40:17;18.10;;;12.97;;
3547;SDS011;1788;49.400;11.092;2024-01-30T10:42:44;19.43;;;12.30;;
3547;SDS011;1788;49.400;11.092;2024-01-30T10:45:12;18.27;;;12.97;;
3547;SDS011;1788;49.400;11.092;2024-01-30T10:47:39;15.90;;;12.30;;
3547;SDS011;1788;49.400;11.092;2024-01-30T10:50:04;20.20;;;13.73;;
3547;SDS011;1788;49.400;11.092;2024-01-30T10:52:31;17.13;;;12.40;;
3547;SDS011;1788;49.400;11.092;2024-01-30T10:54:58;21.53;;;12.37;;
3547;SDS011;1788;49.400;11.092;2024-01-30T10:57:25;21.70;;;12.87;;
3547;SDS011;1788;49.400;11.092;2024-01-30T11:02:18;17.63;;;12.63;;
3547;SDS011;1788;49.400;11.092;2024-01-30T11:04:45;19.63;;;12.87;;
3547;SDS011;1788;49.400;11.092;2024-01-30T11:09:39;17.47;;;11.53;;
3547;SDS011;1788;49.400;11.092;2024-01-30T11:12:06;17.97;;;12.90;;
3547;SDS011;1788;49.400;11.092;2024-01-30T11:14:33;22.00;;;12.23;;
3547;SDS011;1788;49.400;11.092;2024-01-30T11:16:59;18.50;;;11.93;;
3547;SDS011;1788;49.400;11.092;2024-01-30T11:19:26;16.40;;;11.23;;
3547;SDS011;1788;49.400;11.092;2024-01-30T11:21:53;13.77;;;10.80;;
3547;SDS011;1788;49.400;11.092;2024-01-30T11:24:20;18.13;;;12.13;;
3547;SDS011;1788;49.400;11.092;2024-01-30T11:26:47;20.83;;;13.10;;
3547;SDS011;1788;49.400;11.092;2024-01-30T11:29:13;20.20;;;14.13;;
3547;SDS011;1788;49.400;11.092;2024-01-30T11:31:39;22.67;;;12.93;;
3547;SDS011;1788;49.400;11.092;2024-01-30T11:34:06;20.90;;;11.67;;
3547;SDS011;1788;49.400;11.092;2024-01-30T11:36:32;16.97;;;11.20;;
3547;SDS011;1788;49.400;11.092;2024-01-30T11:39:00;16.90;;;10.93;;
3547;SDS011;1788;49.400;11.092;2024-01-30T11:41:26;18.43;;;11.37;;
3547;SDS011;1788;49.400;11.092;2024-01-30T11:43:53;18.07;;;11.37;;
3547;SDS011;1788;49.400;11.092;2024-01-30T11:46:20;20.67;;;12.70;;
3547;SDS011;1788;49.400;11.092;2024-01-30T11:48:46;15.97;;;11.43;;
3547;SDS011;1788;49.400;11.092;2024-01-30T11:51:13;15.77;;;10.33;;
3547;SDS011;1788;49.400;11.092;2024-01-30T11:53:40;16.30;;;10.73;;
3547;SDS011;1788;49.400;11.092;2024-01-30T11:56:07;15.30;;;11.07;;
3547;SDS011;1788;49.400;11.092;2024-01-30T11:58:34;16.73;;;11.20;;
3547;SDS011;1788;49.400;11.092;2024-01-30T12:01:01;18.00;;;10.50;;
3547;SDS011;1788;49.400;11.092;2024-01-30T12:03:28;17.67;;;11.17;;
3547;SDS011;1788;49.400;11.092;2024-01-30T12:05:55;16.90;;;11.23;;
3547;SDS011;1788;49.400;11.092;2024-01-30T12:08:21;15.67;;;10.33;;
3547;SDS011;1788;49.400;11.092;2024-01-30T12:10:55;19.40;;;11.97;;
3547;SDS011;1788;49.400;11.092;2024-01-30T12:13:14;20.27;;;11.90;;
3547;SDS011;1788;49.400;11.092;2024-01-30T12:15:41;9.43;;;8.47;;
3547;SDS011;1788;49.400;11.092;2024-01-30T12:18:07;16.53;;;11.70;;
3547;SDS011;1788;49.400;11.092;2024-01-30T12:20:34;12.50;;;9.30;;
3547;SDS011;1788;49.400;11.092;2024-01-30T12:23:00;10.70;;;8.10;;
3547;SDS011;1788;49.400;11.092;2024-01-30T12:25:28;11.50;;;8.47;;
3547;SDS011;1788;49.400;11.092;2024-01-30T12:27:58;12.70;;;8.93;;
3547;SDS011;1788;49.400;11.092;2024-01-30T12:30:25;19.13;;;11.30;;
3547;SDS011;1788;49.400;11.092;2024-01-30T12:32:52;12.43;;;8.33;;
3547;SDS011;1788;49.400;11.092;2024-01-30T12:35:19;16.60;;;11.23;;
3547;SDS011;1788;49.400;11.092;2024-01-30T12:37:47;14.10;;;10.70;;
3547;SDS011;1788;49.400;11.092;2024-01-30T12:40:14;16.23;;;11.17;;
3547;SDS011;1788;49.400;11.092;2024-01-30T12:42:41;16.37;;;11.13;;
3547;SDS011;1788;49.400;11.092;2024-01-30T12:45:08;15.37;;;10.87;;
3547;SDS011;1788;49.400;11.092;2024-01-30T12:47:36;14.13;;;8.67;;
3547;SDS011;1788;49.400;11.092;2024-01-30T12:50:04;12.00;;;8.60;;
3547;SDS011;1788;49.400;11.092;2024-01-30T12:52:31;16.00;;;9.60;;
3547;SDS011;1788;49.400;11.092;2024-01-30T12:54:57;16.67;;;12.00;;
3547;SDS011;1788;49.400;11.092;2024-01-30T12:57:25;20.63;;;11.90;;
3547;SDS011;1788;49.400;11.092;2024-01-30T12:59:52;12.67;;;8.40;;
3547;SDS011;1788;49.400;11.092;2024-01-30T13:02:19;23.13;;;11.03;;
3547;SDS011;1788;49.400;11.092;2024-01-30T13:04:45;11.60;;;8.10;;
3547;SDS011;1788;49.400;11.092;2024-01-30T13:07:12;10.63;;;8.03;;
3547;SDS011;1788;49.400;11.092;2024-01-30T13:09:39;11.67;;;9.70;;
3547;SDS011;1788;49.400;11.092;2024-01-30T13:12:05;20.27;;;12.67;;
3547;SDS011;1788;49.400;11.092;2024-01-30T13:14:32;18.20;;;11.13;;
3547;SDS011;1788;49.400;11.092;2024-01-30T13:16:58;18.20;;;12.30;;
3547;SDS011;1788;49.400;11.092;2024-01-30T13:19:25;14.17;;;9.80;;
3547;SDS011;1788;49.400;11.092;2024-01-30T13:21:52;15.37;;;9.73;;
3547;SDS011;1788;49.400;11.092;2024-01-30T13:24:18;16.60;;;11.20;;
3547;SDS011;1788;49.400;11.092;2024-01-30T13:26:45;16.37;;;11.30;;
3547;SDS011;1788;49.400;11.092;2024-01-30T13:29:12;16.70;;;11.97;;
3547;SDS011;1788;49.400;11.092;2024-01-30T13:31:38;16.60;;;10.70;;
3547;SDS011;1788;49.400;11.092;2024-01-30T13:34:05;17.47;;;12.23;;
3547;SDS011;1788;49.400;11.092;2024-01-30T13:36:32;10.17;;;8.47;;
3547;SDS011;1788;49.400;11.092;2024-01-30T13:38:59;15.40;;;10.97;;
3547;SDS011;1788;49.400;11.092;2024-01-30T13:41:25;15.30;;;11.27;;
3547;SDS011;1788;49.400;11.092;2024-01-30T13:43:52;11.30;;;8.57;;
3547;SDS011;1788;49.400;11.092;2024-01-30T13:46:19;17.70;;;11.27;;
3547;SDS011;1788;49.400;11.092;2024-01-30T13:48:45;14.47;;;10.40;;
3547;SDS011;1788;49.400;11.092;2024-01-30T13:51:13;16.63;;;11.70;;
3547;SDS011;1788;49.400;11.092;2024-01-30T13:53:39;15.23;;;8.87;;
3547;SDS011;1788;49.400;11.092;2024-01-30T13:56:07;15.30;;;11.13;;
3547;SDS011;1788;49.400;11.092;2024-01-30T13:58:33;11.03;;;7.87;;
3547;SDS011;1788;49.400;11.092;2024-01-30T14:01:01;14.37;;;10.77;;
3547;SDS011;1788;49.400;11.092;2024-01-30T14:03:27;12.50;;;8.53;;
3547;SDS011;1788;49.400;11.092;2024-01-30T14:05:54;12.47;;;9.47;;
3547;SDS011;1788;49.400;11.092;2024-01-30T14:08:20;9.50;;;7.47;;
3547;SDS011;1788;49.400;11.092;2024-01-30T14:10:47;17.70;;;10.47;;
3547;SDS011;1788;49.400;11.092;2024-01-30T14:13:14;15.63;;;10.90;;
3547;SDS011;1788;49.400;11.092;2024-01-30T14:15:41;15.67;;;10.97;;
3547;SDS011;1788;49.400;11.092;2024-01-30T14:18:08;18.43;;;11.90;;
3547;SDS011;1788;49.400;11.092;2024-01-30T14:20:34;18.13;;;11.90;;
3547;SDS011;1788;49.400;11.092;2024-01-30T14:23:01;16.37;;;10.40;;
3547;SDS011;1788;49.400;11.092;2024-01-30T14:25:27;16.40;;;10.73;;
3547;SDS011;1788;49.400;11.092;2024-01-30T14:27:54;16.60;;;11.37;;
3547;SDS011;1788;49.400;11.092;2024-01-30T14:30:21;15.57;;;11.77;;
3547;SDS011;1788;49.400;11.092;2024-01-30T14:32:48;19.17;;;11.53;;
3547;SDS011;1788;49.400;11.092;2024-01-30T14:35:16;17.60;;;11.67;;
3547;SDS011;1788;49.400;11.092;2024-01-30T14:37:43;15.60;;;10.43;;
3547;SDS011;1788;49.400;11.092;2024-01-30T14:40:09;16.07;;;10.50;;
3547;SDS011;1788;49.400;11.092;2024-01-30T14:42:37;17.00;;;11.23;;
3547;SDS011;1788;49.400;11.092;2024-01-30T14:45:04;11.20;;;7.97;;
3547;SDS011;1788;49.400;11.092;2024-01-30T14:47:31;20.60;;;11.67;;
3547;SDS011;1788;49.400;11.092;2024-01-30T14:49:57;16.00;;;10.03;;
3547;SDS011;1788;49.400;11.092;2024-01-30T14:52:25;13.17;;;10.40;;